sensor_id;sensor_type;location;lat;lon;timestamp;temperature;humidity
77056;SHT30;67471;44.918;8.614;2023-05-18T00:00:56;15.51;72.66
77056;SHT30;67471;44.918;8.614;2023-05-18T00:04:01;15.46;72.74
77056;SHT30;67471;44.918;8.614;2023-05-18T00:07:06;15.43;72.74
77056;SHT30;67471;44.918;8.614;2023-05-18T00:10:10;15.46;72.39
77056;SHT30;67471;44.918;8.614;2023-05-18T00:13:14;15.49;72.35
77056;SHT30;67471;44.918;8.614;2023-05-18T00:16:18;15.46;72.30
77056;SHT30;67471;44.918;8.614;2023-05-18T00:19:40;15.36;72.59
77056;SHT30;67471;44.918;8.614;2023-05-18T00:22:44;15.30;72.65
77056;SHT30;67471;44.918;8.614;2023-05-18T00:25:48;15.32;72.73
77056;SHT30;67471;44.918;8.614;2023-05-18T00:28:51;15.32;72.68
77056;SHT30;67471;44.918;8.614;2023-05-18T00:31:55;15.36;72.51
77056;SHT30;67471;44.918;8.614;2023-05-18T00:34:59;15.39;72.20
77056;SHT30;67471;44.918;8.614;2023-05-18T00:38:02;15.33;72.25
77056;SHT30;67471;44.918;8.614;2023-05-18T00:41:06;15.30;72.48
77056;SHT30;67471;44.918;8.614;2023-05-18T00:44:10;15.33;72.40
77056;SHT30;67471;44.918;8.614;2023-05-18T00:47:14;15.28;72.61
77056;SHT30;67471;44.918;8.614;2023-05-18T00:50:17;15.36;72.53
77056;SHT30;67471;44.918;8.614;2023-05-18T00:53:21;15.42;72.54
77056;SHT30;67471;44.918;8.614;2023-05-18T00:56:25;15.29;72.75
77056;SHT30;67471;44.918;8.614;2023-05-18T00:59:31;15.35;73.10
77056;SHT30;67471;44.918;8.614;2023-05-18T01:02:36;15.32;73.40
77056;SHT30;67471;44.918;8.614;2023-05-18T01:05:46;15.23;73.71
77056;SHT30;67471;44.918;8.614;2023-05-18T01:08:59;15.36;73.37
77056;SHT30;67471;44.918;8.614;2023-05-18T01:12:29;15.22;73.57
77056;SHT30;67471;44.918;8.614;2023-05-18T01:15:36;15.29;73.68
77056;SHT30;67471;44.918;8.614;2023-05-18T01:18:46;15.20;73.97
77056;SHT30;67471;44.918;8.614;2023-05-18T01:28:52;15.16;74.42
77056;SHT30;67471;44.918;8.614;2023-05-18T01:31:58;15.12;74.65
77056;SHT30;67471;44.918;8.614;2023-05-18T01:35:02;15.02;74.74
77056;SHT30;67471;44.918;8.614;2023-05-18T01:38:06;15.03;74.95
77056;SHT30;67471;44.918;8.614;2023-05-18T01:41:21;15.05;75.20
77056;SHT30;67471;44.918;8.614;2023-05-18T01:44:30;14.87;75.57
77056;SHT30;67471;44.918;8.614;2023-05-18T01:47:37;14.85;75.45
77056;SHT30;67471;44.918;8.614;2023-05-18T01:50:47;14.84;75.26
77056;SHT30;67471;44.918;8.614;2023-05-18T01:53:59;14.96;75.17
77056;SHT30;67471;44.918;8.614;2023-05-18T01:57:07;14.88;75.27
77056;SHT30;67471;44.918;8.614;2023-05-18T02:00:11;14.85;75.52
77056;SHT30;67471;44.918;8.614;2023-05-18T02:03:23;14.87;75.23
77056;SHT30;67471;44.918;8.614;2023-05-18T02:06:27;14.93;75.13
77056;SHT30;67471;44.918;8.614;2023-05-18T02:09:30;14.77;75.76
77056;SHT30;67471;44.918;8.614;2023-05-18T02:12:34;14.75;75.83
77056;SHT30;67471;44.918;8.614;2023-05-18T02:15:38;14.84;75.44
77056;SHT30;67471;44.918;8.614;2023-05-18T02:18:42;14.87;75.61
77056;SHT30;67471;44.918;8.614;2023-05-18T02:21:47;14.77;75.83
77056;SHT30;67471;44.918;8.614;2023-05-18T02:24:51;14.89;75.33
77056;SHT30;67471;44.918;8.614;2023-05-18T02:27:57;14.92;75.14
77056;SHT30;67471;44.918;8.614;2023-05-18T02:31:07;14.92;75.21
77056;SHT30;67471;44.918;8.614;2023-05-18T02:34:12;14.85;75.33
77056;SHT30;67471;44.918;8.614;2023-05-18T02:37:17;14.85;74.80
77056;SHT30;67471;44.918;8.614;2023-05-18T02:40:21;14.75;74.95
77056;SHT30;67471;44.918;8.614;2023-05-18T02:43:25;14.89;74.31
77056;SHT30;67471;44.918;8.614;2023-05-18T02:46:29;14.85;74.30
77056;SHT30;67471;44.918;8.614;2023-05-18T02:49:33;14.93;74.00
77056;SHT30;67471;44.918;8.614;2023-05-18T02:52:37;14.87;74.35
77056;SHT30;67471;44.918;8.614;2023-05-18T02:55:41;14.93;74.02
77056;SHT30;67471;44.918;8.614;2023-05-18T02:58:52;14.98;73.85
77056;SHT30;67471;44.918;8.614;2023-05-18T03:02:05;14.91;73.98
77056;SHT30;67471;44.918;8.614;2023-05-18T03:05:09;14.87;74.43
77056;SHT30;67471;44.918;8.614;2023-05-18T03:08:13;14.85;74.65
77056;SHT30;67471;44.918;8.614;2023-05-18T03:11:17;14.82;74.80
77056;SHT30;67471;44.918;8.614;2023-05-18T03:14:20;14.91;74.60
77056;SHT30;67471;44.918;8.614;2023-05-18T03:17:24;14.88;74.67
77056;SHT30;67471;44.918;8.614;2023-05-18T03:20:28;14.84;74.52
77056;SHT30;67471;44.918;8.614;2023-05-18T03:23:34;14.70;75.18
77056;SHT30;67471;44.918;8.614;2023-05-18T03:26:38;14.75;75.10
77056;SHT30;67471;44.918;8.614;2023-05-18T03:29:44;14.78;74.71
77056;SHT30;67471;44.918;8.614;2023-05-18T03:32:49;14.80;75.05
77056;SHT30;67471;44.918;8.614;2023-05-18T03:35:54;14.63;75.95
77056;SHT30;67471;44.918;8.614;2023-05-18T03:38:57;14.85;75.83
77056;SHT30;67471;44.918;8.614;2023-05-18T03:42:02;14.95;75.97
77056;SHT30;67471;44.918;8.614;2023-05-18T03:45:07;14.88;76.12
77056;SHT30;67471;44.918;8.614;2023-05-18T03:48:11;14.87;76.28
77056;SHT30;67471;44.918;8.614;2023-05-18T03:51:14;14.87;76.20
77056;SHT30;67471;44.918;8.614;2023-05-18T03:54:19;14.84;76.25
77056;SHT30;67471;44.918;8.614;2023-05-18T03:57:22;14.72;76.35
77056;SHT30;67471;44.918;8.614;2023-05-18T04:00:26;14.80;76.22
77056;SHT30;67471;44.918;8.614;2023-05-18T04:03:30;14.67;76.24
77056;SHT30;67471;44.918;8.614;2023-05-18T04:06:36;14.61;76.61
77056;SHT30;67471;44.918;8.614;2023-05-18T04:09:42;14.56;76.75
77056;SHT30;67471;44.918;8.614;2023-05-18T04:12:46;14.60;76.67
77056;SHT30;67471;44.918;8.614;2023-05-18T04:15:50;14.68;76.59
77056;SHT30;67471;44.918;8.614;2023-05-18T04:18:54;14.57;77.10
77056;SHT30;67471;44.918;8.614;2023-05-18T04:21:59;14.67;76.60
77056;SHT30;67471;44.918;8.614;2023-05-18T04:25:02;14.58;77.13
77056;SHT30;67471;44.918;8.614;2023-05-18T04:28:07;14.72;76.71
77056;SHT30;67471;44.918;8.614;2023-05-18T04:31:12;14.82;76.23
77056;SHT30;67471;44.918;8.614;2023-05-18T04:34:20;14.82;76.24
77056;SHT30;67471;44.918;8.614;2023-05-18T04:37:25;14.78;76.37
77056;SHT30;67471;44.918;8.614;2023-05-18T04:40:29;14.68;76.93
77056;SHT30;67471;44.918;8.614;2023-05-18T04:43:36;14.71;76.75
77056;SHT30;67471;44.918;8.614;2023-05-18T04:46:40;14.71;76.82
77056;SHT30;67471;44.918;8.614;2023-05-18T04:49:45;14.91;76.43
77056;SHT30;67471;44.918;8.614;2023-05-18T04:52:50;14.95;76.19
77056;SHT30;67471;44.918;8.614;2023-05-18T04:55:56;14.91;76.15
77056;SHT30;67471;44.918;8.614;2023-05-18T04:58:59;14.87;76.50
77056;SHT30;67471;44.918;8.614;2023-05-18T05:02:05;14.89;76.47
77056;SHT30;67471;44.918;8.614;2023-05-18T05:05:09;14.89;76.39
77056;SHT30;67471;44.918;8.614;2023-05-18T05:08:13;14.98;76.02
77056;SHT30;67471;44.918;8.614;2023-05-18T05:11:17;14.96;75.96
77056;SHT30;67471;44.918;8.614;2023-05-18T05:14:21;15.01;76.09
77056;SHT30;67471;44.918;8.614;2023-05-18T05:17:24;15.06;76.13
77056;SHT30;67471;44.918;8.614;2023-05-18T05:20:29;15.03;76.38
77056;SHT30;67471;44.918;8.614;2023-05-18T05:23:32;15.12;76.59
77056;SHT30;67471;44.918;8.614;2023-05-18T05:26:36;15.22;76.50
77056;SHT30;67471;44.918;8.614;2023-05-18T05:29:40;15.29;76.24
77056;SHT30;67471;44.918;8.614;2023-05-18T05:32:45;15.16;76.68
77056;SHT30;67471;44.918;8.614;2023-05-18T05:35:49;15.33;76.23
77056;SHT30;67471;44.918;8.614;2023-05-18T05:38:53;15.43;75.78
77056;SHT30;67471;44.918;8.614;2023-05-18T05:41:56;15.53;75.51
77056;SHT30;67471;44.918;8.614;2023-05-18T05:45:01;15.66;75.29
77056;SHT30;67471;44.918;8.614;2023-05-18T05:48:05;15.79;74.83
77056;SHT30;67471;44.918;8.614;2023-05-18T05:51:09;15.83;74.56
77056;SHT30;67471;44.918;8.614;2023-05-18T05:54:13;15.71;74.91
77056;SHT30;67471;44.918;8.614;2023-05-18T05:57:17;15.60;75.31
77056;SHT30;67471;44.918;8.614;2023-05-18T06:00:21;15.46;76.00
77056;SHT30;67471;44.918;8.614;2023-05-18T06:03:34;15.96;74.37
77056;SHT30;67471;44.918;8.614;2023-05-18T06:06:41;16.22;73.17
77056;SHT30;67471;44.918;8.614;2023-05-18T06:09:47;16.49;72.63
77056;SHT30;67471;44.918;8.614;2023-05-18T06:12:51;16.44;73.06
77056;SHT30;67471;44.918;8.614;2023-05-18T06:15:57;16.83;71.59
77056;SHT30;67471;44.918;8.614;2023-05-18T06:19:01;17.06;70.98
77056;SHT30;67471;44.918;8.614;2023-05-18T06:22:05;17.10;70.90
77056;SHT30;67471;44.918;8.614;2023-05-18T06:25:17;16.93;71.74
77056;SHT30;67471;44.918;8.614;2023-05-18T06:28:39;17.10;71.23
77056;SHT30;67471;44.918;8.614;2023-05-18T06:32:04;17.13;71.18
77056;SHT30;67471;44.918;8.614;2023-05-18T06:35:14;17.41;70.56
77056;SHT30;67471;44.918;8.614;2023-05-18T06:38:18;17.77;69.93
77056;SHT30;67471;44.918;8.614;2023-05-18T06:41:22;17.77;68.98
77056;SHT30;67471;44.918;8.614;2023-05-18T06:44:26;17.98;67.95
77056;SHT30;67471;44.918;8.614;2023-05-18T06:47:50;18.49;65.78
77056;SHT30;67471;44.918;8.614;2023-05-18T06:50:54;18.05;66.80
77056;SHT30;67471;44.918;8.614;2023-05-18T06:53:58;18.05;67.04
77056;SHT30;67471;44.918;8.614;2023-05-18T06:57:03;18.17;65.85
77056;SHT30;67471;44.918;8.614;2023-05-18T07:00:07;18.47;65.57
77056;SHT30;67471;44.918;8.614;2023-05-18T07:03:12;18.13;66.18
77056;SHT30;67471;44.918;8.614;2023-05-18T07:06:16;18.10;66.69
77056;SHT30;67471;44.918;8.614;2023-05-18T07:09:20;18.49;65.45
77056;SHT30;67471;44.918;8.614;2023-05-18T07:12:25;18.43;65.71
77056;SHT30;67471;44.918;8.614;2023-05-18T07:15:30;18.16;65.85
77056;SHT30;67471;44.918;8.614;2023-05-18T07:18:33;18.13;66.18
77056;SHT30;67471;44.918;8.614;2023-05-18T07:21:37;18.22;66.26
77056;SHT30;67471;44.918;8.614;2023-05-18T07:24:41;17.72;67.59
77056;SHT30;67471;44.918;8.614;2023-05-18T07:27:45;18.44;66.26
77056;SHT30;67471;44.918;8.614;2023-05-18T07:30:49;18.78;65.22
77056;SHT30;67471;44.918;8.614;2023-05-18T07:33:53;18.95;64.61
77056;SHT30;67471;44.918;8.614;2023-05-18T07:36:57;19.01;64.47
77056;SHT30;67471;44.918;8.614;2023-05-18T07:40:01;19.11;63.99
77056;SHT30;67471;44.918;8.614;2023-05-18T07:43:07;19.09;64.11
77056;SHT30;67471;44.918;8.614;2023-05-18T07:46:10;19.11;63.70
77056;SHT30;67471;44.918;8.614;2023-05-18T07:49:14;19.08;63.98
77056;SHT30;67471;44.918;8.614;2023-05-18T07:52:18;18.83;64.32
77056;SHT30;67471;44.918;8.614;2023-05-18T07:55:22;18.92;64.09
77056;SHT30;67471;44.918;8.614;2023-05-18T07:58:26;18.99;63.74
77056;SHT30;67471;44.918;8.614;2023-05-18T08:01:29;19.04;63.57
77056;SHT30;67471;44.918;8.614;2023-05-18T08:04:34;18.83;63.80
77056;SHT30;67471;44.918;8.614;2023-05-18T08:07:38;18.97;63.59
77056;SHT30;67471;44.918;8.614;2023-05-18T08:10:42;19.08;63.53
77056;SHT30;67471;44.918;8.614;2023-05-18T08:13:46;19.19;63.27
77056;SHT30;67471;44.918;8.614;2023-05-18T08:16:49;19.15;63.85
77056;SHT30;67471;44.918;8.614;2023-05-18T08:19:53;19.33;63.61
77056;SHT30;67471;44.918;8.614;2023-05-18T08:22:57;19.28;63.54
77056;SHT30;67471;44.918;8.614;2023-05-18T08:26:02;19.45;63.03
77056;SHT30;67471;44.918;8.614;2023-05-18T08:29:08;19.60;62.32
77056;SHT30;67471;44.918;8.614;2023-05-18T08:32:13;19.74;62.03
77056;SHT30;67471;44.918;8.614;2023-05-18T08:35:16;19.96;61.65
77056;SHT30;67471;44.918;8.614;2023-05-18T08:38:20;20.31;60.15
77056;SHT30;67471;44.918;8.614;2023-05-18T08:41:35;20.78;59.44
77056;SHT30;67471;44.918;8.614;2023-05-18T08:45:24;21.02;58.12
77056;SHT30;67471;44.918;8.614;2023-05-18T08:48:31;20.86;58.12
77056;SHT30;67471;44.918;8.614;2023-05-18T08:51:36;21.11;57.76
77056;SHT30;67471;44.918;8.614;2023-05-18T08:54:40;21.24;57.30
77056;SHT30;67471;44.918;8.614;2023-05-18T08:57:46;21.47;56.90
77056;SHT30;67471;44.918;8.614;2023-05-18T09:00:52;21.78;55.68
77056;SHT30;67471;44.918;8.614;2023-05-18T09:03:57;22.09;54.88
77056;SHT30;67471;44.918;8.614;2023-05-18T09:07:02;22.10;54.52
77056;SHT30;67471;44.918;8.614;2023-05-18T09:10:09;22.09;54.21
77056;SHT30;67471;44.918;8.614;2023-05-18T09:13:14;22.04;54.79
77056;SHT30;67471;44.918;8.614;2023-05-18T09:16:19;21.87;54.66
77056;SHT30;67471;44.918;8.614;2023-05-18T09:19:23;21.73;55.18
77056;SHT30;67471;44.918;8.614;2023-05-18T09:22:27;21.79;55.19
77056;SHT30;67471;44.918;8.614;2023-05-18T09:25:31;21.69;54.85
77056;SHT30;67471;44.918;8.614;2023-05-18T09:28:41;21.51;54.76
77056;SHT30;67471;44.918;8.614;2023-05-18T09:31:46;21.50;55.34
77056;SHT30;67471;44.918;8.614;2023-05-18T09:34:51;21.47;55.67
77056;SHT30;67471;44.918;8.614;2023-05-18T09:37:55;21.41;55.43
77056;SHT30;67471;44.918;8.614;2023-05-18T09:40:58;21.48;55.04
77056;SHT30;67471;44.918;8.614;2023-05-18T09:44:03;21.24;55.42
77056;SHT30;67471;44.918;8.614;2023-05-18T09:47:11;21.34;55.19
77056;SHT30;67471;44.918;8.614;2023-05-18T09:50:19;21.22;55.56
77056;SHT30;67471;44.918;8.614;2023-05-18T09:53:23;21.40;55.36
77056;SHT30;67471;44.918;8.614;2023-05-18T09:56:27;21.59;54.81
77056;SHT30;67471;44.918;8.614;2023-05-18T09:59:31;22.01;54.18
77056;SHT30;67471;44.918;8.614;2023-05-18T10:02:41;21.91;55.23
77056;SHT30;67471;44.918;8.614;2023-05-18T10:05:45;22.10;55.20
77056;SHT30;67471;44.918;8.614;2023-05-18T10:08:50;22.09;55.42
77056;SHT30;67471;44.918;8.614;2023-05-18T10:11:54;22.13;55.25
77056;SHT30;67471;44.918;8.614;2023-05-18T10:14:57;22.49;54.02
77056;SHT30;67471;44.918;8.614;2023-05-18T10:18:02;22.39;53.61
77056;SHT30;67471;44.918;8.614;2023-05-18T10:21:06;22.55;53.32
77056;SHT30;67471;44.918;8.614;2023-05-18T10:24:11;22.47;54.00
77056;SHT30;67471;44.918;8.614;2023-05-18T10:27:23;22.35;54.15
77056;SHT30;67471;44.918;8.614;2023-05-18T10:30:29;22.52;53.89
77056;SHT30;67471;44.918;8.614;2023-05-18T10:33:35;22.36;54.39
77056;SHT30;67471;44.918;8.614;2023-05-18T10:36:40;22.40;54.36
77056;SHT30;67471;44.918;8.614;2023-05-18T10:39:45;22.71;54.30
77056;SHT30;67471;44.918;8.614;2023-05-18T10:42:51;22.76;53.99
77056;SHT30;67471;44.918;8.614;2023-05-18T10:45:58;22.84;53.57
77056;SHT30;67471;44.918;8.614;2023-05-18T10:49:02;22.67;53.66
77056;SHT30;67471;44.918;8.614;2023-05-18T10:52:07;22.63;53.43
77056;SHT30;67471;44.918;8.614;2023-05-18T10:55:12;22.80;53.39
77056;SHT30;67471;44.918;8.614;2023-05-18T10:58:23;22.93;52.47
77056;SHT30;67471;44.918;8.614;2023-05-18T11:01:28;23.14;52.05
77056;SHT30;67471;44.918;8.614;2023-05-18T11:04:31;23.41;50.92
77056;SHT30;67471;44.918;8.614;2023-05-18T11:07:36;23.27;51.02
77056;SHT30;67471;44.918;8.614;2023-05-18T11:10:42;23.75;49.68
77056;SHT30;67471;44.918;8.614;2023-05-18T11:13:47;24.05;49.06
77056;SHT30;67471;44.918;8.614;2023-05-18T11:16:51;23.86;49.25
77056;SHT30;67471;44.918;8.614;2023-05-18T11:23:08;23.92;49.21
77056;SHT30;67471;44.918;8.614;2023-05-18T11:26:14;23.92;49.33
77056;SHT30;67471;44.918;8.614;2023-05-18T11:29:40;24.00;48.75
77056;SHT30;67471;44.918;8.614;2023-05-18T11:32:49;24.00;48.65
77056;SHT30;67471;44.918;8.614;2023-05-18T11:36:10;24.10;48.21
77056;SHT30;67471;44.918;8.614;2023-05-18T11:39:22;23.85;48.77
77056;SHT30;67471;44.918;8.614;2023-05-18T11:42:31;24.06;47.96
77056;SHT30;67471;44.918;8.614;2023-05-18T11:45:51;24.00;48.04
77056;SHT30;67471;44.918;8.614;2023-05-18T11:48:55;24.21;48.47
77056;SHT30;67471;44.918;8.614;2023-05-18T11:55:05;24.06;48.36
77056;SHT30;67471;44.918;8.614;2023-05-18T11:58:10;23.85;48.53
77056;SHT30;67471;44.918;8.614;2023-05-18T12:01:16;24.28;47.88
77056;SHT30;67471;44.918;8.614;2023-05-18T12:04:20;24.44;47.70
77056;SHT30;67471;44.918;8.614;2023-05-18T12:07:25;24.37;47.40
77056;SHT30;67471;44.918;8.614;2023-05-18T12:10:30;24.28;47.61
77056;SHT30;67471;44.918;8.614;2023-05-18T12:13:37;24.36;47.73
77056;SHT30;67471;44.918;8.614;2023-05-18T12:16:41;24.27;47.73
77056;SHT30;67471;44.918;8.614;2023-05-18T12:19:47;24.02;48.64
77056;SHT30;67471;44.918;8.614;2023-05-18T12:22:52;24.03;48.45
77056;SHT30;67471;44.918;8.614;2023-05-18T12:25:56;23.79;48.88
77056;SHT30;67471;44.918;8.614;2023-05-18T12:29:00;23.72;49.09
77056;SHT30;67471;44.918;8.614;2023-05-18T12:32:05;23.86;48.56
77056;SHT30;67471;44.918;8.614;2023-05-18T12:35:09;23.70;49.18
77056;SHT30;67471;44.918;8.614;2023-05-18T12:38:16;23.52;48.67
77056;SHT30;67471;44.918;8.614;2023-05-18T12:41:23;23.35;49.30
77056;SHT30;67471;44.918;8.614;2023-05-18T12:44:27;23.32;49.11
77056;SHT30;67471;44.918;8.614;2023-05-18T12:47:32;23.19;49.87
77056;SHT30;67471;44.918;8.614;2023-05-18T12:50:47;23.32;50.17
77056;SHT30;67471;44.918;8.614;2023-05-18T12:53:51;23.46;50.00
77056;SHT30;67471;44.918;8.614;2023-05-18T12:56:55;23.39;49.64
77056;SHT30;67471;44.918;8.614;2023-05-18T13:00:05;23.48;49.00
77056;SHT30;67471;44.918;8.614;2023-05-18T13:03:15;23.69;48.09
77056;SHT30;67471;44.918;8.614;2023-05-18T13:06:19;23.90;47.27
77056;SHT30;67471;44.918;8.614;2023-05-18T13:09:23;24.09;46.80
77056;SHT30;67471;44.918;8.614;2023-05-18T13:12:43;24.20;46.81
77056;SHT30;67471;44.918;8.614;2023-05-18T13:15:46;24.17;46.84
77056;SHT30;67471;44.918;8.614;2023-05-18T13:19:03;24.07;46.61
77056;SHT30;67471;44.918;8.614;2023-05-18T13:22:07;24.31;46.29
77056;SHT30;67471;44.918;8.614;2023-05-18T13:25:10;24.23;46.10
77056;SHT30;67471;44.918;8.614;2023-05-18T13:28:16;24.36;46.93
77056;SHT30;67471;44.918;8.614;2023-05-18T13:31:20;24.18;46.91
77056;SHT30;67471;44.918;8.614;2023-05-18T13:34:24;23.85;47.18
77056;SHT30;67471;44.918;8.614;2023-05-18T13:37:28;23.75;47.61
77056;SHT30;67471;44.918;8.614;2023-05-18T13:40:32;23.90;46.85
77056;SHT30;67471;44.918;8.614;2023-05-18T13:43:36;23.41;47.65
77056;SHT30;67471;44.918;8.614;2023-05-18T13:46:40;23.29;48.10
77056;SHT30;67471;44.918;8.614;2023-05-18T13:49:43;23.49;48.03
77056;SHT30;67471;44.918;8.614;2023-05-18T13:52:46;23.76;47.64
77056;SHT30;67471;44.918;8.614;2023-05-18T13:55:50;24.05;47.11
77056;SHT30;67471;44.918;8.614;2023-05-18T13:58:54;23.87;47.00
77056;SHT30;67471;44.918;8.614;2023-05-18T14:01:59;23.90;47.60
77056;SHT30;67471;44.918;8.614;2023-05-18T14:05:03;24.12;47.37
77056;SHT30;67471;44.918;8.614;2023-05-18T14:08:07;24.12;47.09
77056;SHT30;67471;44.918;8.614;2023-05-18T14:11:11;23.93;47.32
77056;SHT30;67471;44.918;8.614;2023-05-18T14:14:15;24.10;46.76
77056;SHT30;67471;44.918;8.614;2023-05-18T14:17:19;23.87;47.30
77056;SHT30;67471;44.918;8.614;2023-05-18T14:20:22;23.55;47.80
77056;SHT30;67471;44.918;8.614;2023-05-18T14:23:26;23.48;48.17
77056;SHT30;67471;44.918;8.614;2023-05-18T14:26:29;23.70;47.98
77056;SHT30;67471;44.918;8.614;2023-05-18T14:29:33;23.70;47.87
77056;SHT30;67471;44.918;8.614;2023-05-18T14:32:37;23.48;48.12
77056;SHT30;67471;44.918;8.614;2023-05-18T14:35:40;23.46;48.37
77056;SHT30;67471;44.918;8.614;2023-05-18T14:38:43;23.56;48.08
77056;SHT30;67471;44.918;8.614;2023-05-18T14:41:48;23.55;48.75
77056;SHT30;67471;44.918;8.614;2023-05-18T14:44:51;23.58;48.54
77056;SHT30;67471;44.918;8.614;2023-05-18T14:47:55;23.35;48.25
77056;SHT30;67471;44.918;8.614;2023-05-18T14:50:59;23.21;48.60
77056;SHT30;67471;44.918;8.614;2023-05-18T14:54:03;23.35;48.34
77056;SHT30;67471;44.918;8.614;2023-05-18T14:57:06;23.17;48.68
77056;SHT30;67471;44.918;8.614;2023-05-18T15:00:11;23.04;48.98
77056;SHT30;67471;44.918;8.614;2023-05-18T15:03:15;23.05;49.07
77056;SHT30;67471;44.918;8.614;2023-05-18T15:06:19;22.93;49.19
77056;SHT30;67471;44.918;8.614;2023-05-18T15:09:23;23.01;49.11
77056;SHT30;67471;44.918;8.614;2023-05-18T15:12:27;23.00;49.09
77056;SHT30;67471;44.918;8.614;2023-05-18T15:15:30;23.12;48.99
77056;SHT30;67471;44.918;8.614;2023-05-18T15:18:34;22.96;49.32
77056;SHT30;67471;44.918;8.614;2023-05-18T15:21:38;23.03;48.91
77056;SHT30;67471;44.918;8.614;2023-05-18T15:24:42;23.04;48.87
77056;SHT30;67471;44.918;8.614;2023-05-18T15:27:46;22.94;48.95
77056;SHT30;67471;44.918;8.614;2023-05-18T15:30:51;23.11;48.58
77056;SHT30;67471;44.918;8.614;2023-05-18T15:33:57;22.96;49.09
77056;SHT30;67471;44.918;8.614;2023-05-18T15:37:00;23.05;49.42
77056;SHT30;67471;44.918;8.614;2023-05-18T15:40:04;23.31;48.88
77056;SHT30;67471;44.918;8.614;2023-05-18T15:43:08;23.38;48.66
77056;SHT30;67471;44.918;8.614;2023-05-18T15:46:12;23.12;49.30
77056;SHT30;67471;44.918;8.614;2023-05-18T15:49:16;23.07;49.43
77056;SHT30;67471;44.918;8.614;2023-05-18T15:52:20;23.14;49.09
77056;SHT30;67471;44.918;8.614;2023-05-18T15:55:24;23.00;49.10
77056;SHT30;67471;44.918;8.614;2023-05-18T15:58:27;22.84;49.48
77056;SHT30;67471;44.918;8.614;2023-05-18T16:01:30;22.57;50.15
77056;SHT30;67471;44.918;8.614;2023-05-18T16:04:34;22.73;50.06
77056;SHT30;67471;44.918;8.614;2023-05-18T16:07:38;22.71;50.15
77056;SHT30;67471;44.918;8.614;2023-05-18T16:10:43;22.52;50.69
77056;SHT30;67471;44.918;8.614;2023-05-18T16:13:46;22.32;50.86
77056;SHT30;67471;44.918;8.614;2023-05-18T16:16:52;22.30;51.20
77056;SHT30;67471;44.918;8.614;2023-05-18T16:19:55;22.32;51.16
77056;SHT30;67471;44.918;8.614;2023-05-18T16:22:59;22.16;51.62
77056;SHT30;67471;44.918;8.614;2023-05-18T16:26:02;22.20;51.82
77056;SHT30;67471;44.918;8.614;2023-05-18T16:29:08;22.06;52.31
77056;SHT30;67471;44.918;8.614;2023-05-18T16:32:11;22.08;52.42
77056;SHT30;67471;44.918;8.614;2023-05-18T16:35:15;22.18;52.02
77056;SHT30;67471;44.918;8.614;2023-05-18T16:38:19;22.06;52.00
77056;SHT30;67471;44.918;8.614;2023-05-18T16:41:23;21.87;50.19
77056;SHT30;67471;44.918;8.614;2023-05-18T16:44:26;22.01;48.41
77056;SHT30;67471;44.918;8.614;2023-05-18T16:47:29;21.84;46.24
77056;SHT30;67471;44.918;8.614;2023-05-18T16:50:36;21.94;45.58
77056;SHT30;67471;44.918;8.614;2023-05-18T16:53:39;21.67;45.52
77056;SHT30;67471;44.918;8.614;2023-05-18T16:56:44;21.89;45.94
77056;SHT30;67471;44.918;8.614;2023-05-18T16:59:48;21.71;45.48
77056;SHT30;67471;44.918;8.614;2023-05-18T17:02:52;21.65;45.47
77056;SHT30;67471;44.918;8.614;2023-05-18T17:05:55;21.64;45.53
77056;SHT30;67471;44.918;8.614;2023-05-18T17:08:59;21.55;45.37
77056;SHT30;67471;44.918;8.614;2023-05-18T17:12:02;21.59;45.44
77056;SHT30;67471;44.918;8.614;2023-05-18T17:15:07;21.47;45.87
77056;SHT30;67471;44.918;8.614;2023-05-18T17:18:16;21.43;45.93
77056;SHT30;67471;44.918;8.614;2023-05-18T17:21:20;21.28;45.74
77056;SHT30;67471;44.918;8.614;2023-05-18T17:24:25;21.28;46.05
77056;SHT30;67471;44.918;8.614;2023-05-18T17:27:29;21.36;45.51
77056;SHT30;67471;44.918;8.614;2023-05-18T17:30:32;21.26;45.54
77056;SHT30;67471;44.918;8.614;2023-05-18T17:33:36;21.19;45.89
77056;SHT30;67471;44.918;8.614;2023-05-18T17:36:39;21.00;46.55
77056;SHT30;67471;44.918;8.614;2023-05-18T17:39:44;20.82;47.20
77056;SHT30;67471;44.918;8.614;2023-05-18T17:42:48;20.73;47.70
77056;SHT30;67471;44.918;8.614;2023-05-18T17:45:51;20.61;47.99
77056;SHT30;67471;44.918;8.614;2023-05-18T17:48:55;20.52;48.32
77056;SHT30;67471;44.918;8.614;2023-05-18T17:51:59;20.58;48.40
77056;SHT30;67471;44.918;8.614;2023-05-18T17:55:04;20.45;48.62
77056;SHT30;67471;44.918;8.614;2023-05-18T17:58:07;20.37;48.97
77056;SHT30;67471;44.918;8.614;2023-05-18T18:01:11;20.35;49.10
77056;SHT30;67471;44.918;8.614;2023-05-18T18:04:15;20.20;49.70
77056;SHT30;67471;44.918;8.614;2023-05-18T18:07:19;20.08;49.66
77056;SHT30;67471;44.918;8.614;2023-05-18T18:10:23;20.21;49.54
77056;SHT30;67471;44.918;8.614;2023-05-18T18:13:27;20.27;49.39
77056;SHT30;67471;44.918;8.614;2023-05-18T18:16:32;20.04;50.41
77056;SHT30;67471;44.918;8.614;2023-05-18T18:19:36;19.88;51.01
77056;SHT30;67471;44.918;8.614;2023-05-18T18:22:40;19.97;50.79
77056;SHT30;67471;44.918;8.614;2023-05-18T18:25:44;19.94;50.90
77056;SHT30;67471;44.918;8.614;2023-05-18T18:28:48;19.94;51.25
77056;SHT30;67471;44.918;8.614;2023-05-18T18:31:52;19.98;51.07
77056;SHT30;67471;44.918;8.614;2023-05-18T18:34:56;20.06;50.65
77056;SHT30;67471;44.918;8.614;2023-05-18T18:38:02;19.93;50.79
77056;SHT30;67471;44.918;8.614;2023-05-18T18:41:07;19.88;50.95
77056;SHT30;67471;44.918;8.614;2023-05-18T18:44:10;19.97;50.96
77056;SHT30;67471;44.918;8.614;2023-05-18T18:47:14;19.97;50.91
77056;SHT30;67471;44.918;8.614;2023-05-18T18:50:18;19.88;51.17
77056;SHT30;67471;44.918;8.614;2023-05-18T18:53:24;19.93;51.30
77056;SHT30;67471;44.918;8.614;2023-05-18T18:56:28;20.03;51.10
77056;SHT30;67471;44.918;8.614;2023-05-18T18:59:32;19.69;52.12
77056;SHT30;67471;44.918;8.614;2023-05-18T19:02:38;19.58;52.75
77056;SHT30;67471;44.918;8.614;2023-05-18T19:05:42;19.69;52.73
77056;SHT30;67471;44.918;8.614;2023-05-18T19:08:46;19.65;53.04
77056;SHT30;67471;44.918;8.614;2023-05-18T19:11:49;19.55;53.55
77056;SHT30;67471;44.918;8.614;2023-05-18T19:14:53;19.26;54.43
77056;SHT30;67471;44.918;8.614;2023-05-18T19:17:57;19.42;54.37
77056;SHT30;67471;44.918;8.614;2023-05-18T19:21:01;19.40;54.43
77056;SHT30;67471;44.918;8.614;2023-05-18T19:24:05;19.40;54.61
77056;SHT30;67471;44.918;8.614;2023-05-18T19:27:09;19.35;54.64
77056;SHT30;67471;44.918;8.614;2023-05-18T19:30:13;19.29;54.64
77056;SHT30;67471;44.918;8.614;2023-05-18T19:33:21;19.49;54.27
77056;SHT30;67471;44.918;8.614;2023-05-18T19:36:25;19.59;54.17
77056;SHT30;67471;44.918;8.614;2023-05-18T19:39:29;19.62;53.98
77056;SHT30;67471;44.918;8.614;2023-05-18T19:42:33;19.63;53.84